Time;durP1;ratioP1;P1;durP2;ratioP2;P2;SDS_P1;SDS_P2;PMS_P1;PMS_P2;Temp;Humidity;BMP_temperature;BMP_pressure;BME280_temperature;BME280_humidity;BME280_pressure;Samples;Min_cycle;Max_cycle;Signal;HPM_P1;HPM_P2
2023/06/16 00:00:09;;;;;;;;;9.67;9.67;;;;;23.05;71.83;101406.13;5071932;28;45270;-75
2023/06/16 00:02:35;;;;;;;;;10.67;10.67;;;;;23.02;72.35;101408.94;5073110;28;45406;-75
2023/06/16 00:05:01;;;;;;;;;13.00;12.00;;;;;22.97;72.43;101402.81;5078190;28;52411;-76
2023/06/16 00:07:31;;;;;;;;;10.33;10.33;;;;;22.93;73.24;101409.19;5070871;28;46154;-75
2023/06/16 00:09:56;;;;;;;;;10.00;10.00;;;;;22.92;73.34;101416.41;5074607;28;45377;-76
2023/06/16 00:12:21;;;;;;;;;14.00;11.00;;;;;22.89;73.33;101416.47;5076354;28;59484;-77
2023/06/16 00:14:47;;;;;;;;;11.67;11.00;;;;;22.87;73.88;101420.13;5077518;28;59449;-76
2023/06/16 00:17:13;;;;;;;;;14.00;12.33;;;;;22.85;75.01;101420.19;5076866;28;69296;-76
2023/06/16 00:19:39;;;;;;;;;12.33;12.33;;;;;22.83;75.05;101422.03;5074688;28;45365;-76
2023/06/16 00:22:07;;;;;;;;;12.00;12.00;;;;;22.80;75.06;101419.44;5078120;28;45450;-76
2023/06/16 00:24:32;;;;;;;;;20.00;16.67;;;;;22.78;76.12;101418.59;5075987;28;45196;-75
2023/06/16 00:26:58;;;;;;;;;14.00;14.00;;;;;22.76;76.38;101412.38;5075472;28;69573;-76
2023/06/16 00:29:23;;;;;;;;;14.00;13.00;;;;;22.72;76.90;101416.97;5077654;28;45280;-76
2023/06/16 00:31:49;;;;;;;;;16.67;15.67;;;;;22.70;77.36;101417.97;5072384;28;60615;-76
2023/06/16 00:34:14;;;;;;;;;17.33;15.67;;;;;22.66;77.45;101416.28;5060186;28;45525;-76
2023/06/16 00:36:39;;;;;;;;;16.00;16.00;;;;;22.64;78.94;101420.84;5076737;28;66487;-76
2023/06/16 00:39:05;;;;;;;;;12.33;12.33;;;;;22.62;79.66;101415.47;5069084;28;45477;-76
2023/06/16 00:41:30;;;;;;;;;18.00;16.33;;;;;22.60;80.20;101419.16;5076483;28;45374;-76
2023/06/16 00:43:55;;;;;;;;;21.33;18.00;;;;;22.57;81.17;101420.13;5077191;28;52047;-75
2023/06/16 00:46:26;;;;;;;;;18.33;15.00;;;;;22.56;81.75;101426.44;5074058;28;46663;-76
2023/06/16 00:48:52;;;;;;;;;18.67;16.00;;;;;22.54;82.25;101424.72;5073741;28;45387;-75
2023/06/16 00:51:17;;;;;;;;;3.00;3.00;;;;;22.51;82.40;101420.28;5059680;28;45484;-76
2023/06/16 00:53:43;;;;;;;;;19.67;16.00;;;;;22.48;83.08;101423.97;5069736;28;61222;-76
2023/06/16 00:56:08;;;;;;;;;16.00;15.00;;;;;22.43;83.03;101423.22;5076471;28;70332;-76
2023/06/16 00:58:34;;;;;;;;;19.00;14.00;;;;;22.40;83.76;101428.69;5050630;28;45450;-76
2023/06/16 01:01:00;;;;;;;;;19.00;17.67;;;;;22.37;83.58;101425.19;5058076;28;63481;-76
2023/06/16 01:03:26;;;;;;;;;18.00;18.00;;;;;22.33;84.20;101421.72;5074919;28;59208;-76
2023/06/16 01:05:56;;;;;;;;;17.00;15.00;;;;;22.31;84.53;101428.94;5074966;27;46377;-76
2023/06/16 01:08:35;;;;;;;;;17.67;15.67;;;;;22.26;85.11;101422.78;5073214;28;45394;-76
2023/06/16 01:11:11;;;;;;;;;19.00;19.00;;;;;22.21;85.30;101422.03;5056947;28;45526;-76
2023/06/16 01:13:59;;;;;;;;;25.00;23.33;;;;;22.19;86.03;101426.59;5076988;28;45478;-76
2023/06/16 01:16:28;;;;;;;;;18.33;15.67;;;;;22.15;86.11;101424.91;5064261;28;45897;-75
2023/06/16 01:18:54;;;;;;;;;23.33;20.00;;;;;22.11;86.43;101420.56;5052566;28;45356;-77
2023/06/16 01:21:37;;;;;;;;;19.33;19.00;;;;;22.07;86.60;101422.41;5077196;28;45363;-76
2023/06/16 01:24:08;;;;;;;;;19.00;18.00;;;;;22.04;87.45;101424.28;5072692;28;45370;-76
2023/06/16 01:26:37;;;;;;;;;23.00;20.67;;;;;21.99;87.10;101421.72;5058190;28;46332;-76
2023/06/16 01:29:05;;;;;;;;;26.00;22.33;;;;;21.95;87.57;101420.94;5076856;28;45390;-76
2023/06/16 01:31:32;;;;;;;;;24.00;17.67;;;;;21.93;88.06;101420.06;5075774;28;45426;-76
2023/06/16 01:34:00;;;;;;;;;20.00;18.33;;;;;21.88;88.27;101422.00;5047551;28;45505;-76
2023/06/16 01:36:30;;;;;;;;;29.00;21.00;;;;;21.86;88.48;101415.78;5076614;28;47322;-76
2023/06/16 01:38:56;;;;;;;;;17.67;16.33;;;;;21.83;89.55;101407.78;5057917;28;45762;-76
2023/06/16 01:41:21;;;;;;;;;21.33;17.67;;;;;21.81;89.95;101406.09;5056057;28;59267;-76
2023/06/16 01:43:47;;;;;;;;;19.67;17.33;;;;;21.78;89.78;101406.16;5076310;28;52683;-76
2023/06/16 01:46:14;;;;;;;;;17.33;17.00;;;;;21.75;90.36;101414.31;5072229;28;46453;-77
2023/06/16 01:48:39;;;;;;;;;13.00;13.00;;;;;21.72;91.23;101409.88;5058549;28;45458;-76
2023/06/16 01:51:05;;;;;;;;;17.33;14.33;;;;;21.68;91.32;101413.59;5074416;28;45315;-76
2023/06/16 01:53:30;;;;;;;;;13.00;13.00;;;;;21.66;91.72;101415.44;5075825;28;52244;-76
2023/06/16 01:55:56;;;;;;;;;17.67;16.67;;;;;21.64;91.31;101407.41;5073840;28;54333;-77
2023/06/16 01:58:25;;;;;;;;;17.67;14.00;;;;;21.65;91.74;101416.34;5054363;28;45262;-76
2023/06/16 02:00:57;;;;;;;;;17.00;13.67;;;;;21.61;92.16;101420.03;5073498;28;45466;-76
2023/06/16 02:03:35;;;;;;;;;19.00;15.33;;;;;21.55;91.60;101420.19;5073984;28;45327;-76
2023/06/16 02:06:05;;;;;;;;;17.67;15.33;;;;;21.51;92.06;101422.06;5057966;28;47453;-76
2023/06/16 02:08:32;;;;;;;;;17.00;15.33;;;;;21.46;91.97;101421.28;5075796;28;45619;-75
2023/06/16 02:10:57;;;;;;;;;14.33;13.00;;;;;21.40;91.76;101416.94;5075529;28;45509;-76
2023/06/16 02:13:23;;;;;;;;;19.33;15.33;;;;;21.33;93.30;101415.34;5058311;28;45581;-77
2023/06/16 02:15:48;;;;;;;;;14.67;14.67;;;;;21.28;93.66;101421.72;5072751;28;45864;-75
2023/06/16 02:18:14;;;;;;;;;20.33;18.67;;;;;21.23;94.62;101419.13;5057704;28;45253;-76
2023/06/16 02:20:39;;;;;;;;;17.67;15.00;;;;;21.19;95.23;101420.13;5075847;28;50594;-75
2023/06/16 02:23:05;;;;;;;;;14.67;14.67;;;;;21.17;95.84;101419.28;5075275;28;45491;-76
2023/06/16 02:25:30;;;;;;;;;15.00;15.00;;;;;21.14;95.72;101422.91;5070236;28;46301;-75
2023/06/16 02:27:56;;;;;;;;;17.33;15.33;;;;;21.12;94.86;101418.50;5073922;28;45556;-76
2023/06/16 02:30:21;;;;;;;;;14.67;14.67;;;;;21.14;96.08;101419.34;5074467;28;61851;-75
2023/06/16 02:32:48;;;;;;;;;18.00;17.00;;;;;21.12;95.47;101416.69;5074383;28;45335;-76
2023/06/16 02:35:14;;;;;;;;;16.00;14.67;;;;;21.11;96.05;101414.94;5074447;28;46661;-76
2023/06/16 02:37:41;;;;;;;;;19.67;15.00;;;;;21.10;96.17;101417.69;5075989;28;45497;-76
2023/06/16 02:40:07;;;;;;;;;16.67;14.67;;;;;21.07;95.71;101407.88;5070839;28;45441;-76
2023/06/16 02:42:33;;;;;;;;;14.00;14.00;;;;;21.08;96.02;101423.06;5074448;28;45616;-76
2023/06/16 02:44:58;;;;;;;;;18.00;16.67;;;;;21.08;96.43;101414.13;5069838;28;45751;-76
2023/06/16 02:47:23;;;;;;;;;14.00;14.00;;;;;21.03;96.58;101411.53;5075452;28;68226;-75
2023/06/16 02:49:50;;;;;;;;;13.67;13.67;;;;;21.00;96.59;101416.13;5074732;28;45192;-75
2023/06/16 02:52:15;;;;;;;;;15.00;15.00;;;;;20.97;96.56;101411.69;5073906;28;45592;-77
2023/06/16 02:54:40;;;;;;;;;15.00;14.33;;;;;20.97;97.08;101416.16;5075300;28;68379;-76
2023/06/16 02:57:07;;;;;;;;;14.00;11.67;;;;;20.92;97.18;101414.47;5065661;28;50666;-76
2023/06/16 02:59:33;;;;;;;;;18.67;14.67;;;;;20.89;96.59;101419.94;5075856;28;45584;-75
2023/06/16 03:01:58;;;;;;;;;14.00;14.00;;;;;20.87;97.91;101424.41;5070467;28;45464;-76
2023/06/16 03:04:25;;;;;;;;;13.67;13.33;;;;;20.86;97.44;101419.97;5074969;28;66744;-76
2023/06/16 03:06:53;;;;;;;;;13.33;12.00;;;;;20.85;97.83;101418.22;5075801;28;45501;-75
2023/06/16 03:09:18;;;;;;;;;11.00;11.00;;;;;20.83;97.87;101420.06;5075254;28;45276;-76
2023/06/16 03:11:43;;;;;;;;;17.33;16.00;;;;;20.82;97.48;101422.75;5070858;28;45497;-75
2023/06/16 03:14:09;;;;;;;;;17.67;15.67;;;;;20.80;97.99;101405.81;5056103;28;67400;-75
2023/06/16 03:16:35;;;;;;;;;15.33;14.67;;;;;20.79;98.51;101413.00;5040231;28;55869;-76
2023/06/16 03:19:00;;;;;;;;;15.67;14.33;;;;;20.77;98.76;101420.16;5070993;28;46596;-75
2023/06/16 03:21:26;;;;;;;;;17.00;15.67;;;;;20.74;98.82;101422.06;5072342;28;56355;-76
2023/06/16 03:23:51;;;;;;;;;15.67;14.67;;;;;20.69;98.28;101421.28;5068795;28;47339;-76
2023/06/16 03:26:18;;;;;;;;;15.67;15.67;;;;;20.66;98.79;101419.53;5070548;28;45368;-76
2023/06/16 03:28:43;;;;;;;;;14.33;14.33;;;;;20.66;99.12;101427.56;5052684;28;45414;-75
2023/06/16 03:31:10;;;;;;;;;17.00;15.00;;;;;20.65;100.00;101434.75;5074311;28;62583;-77
2023/06/16 03:33:36;;;;;;;;;13.33;13.33;;;;;20.64;99.35;101430.28;5075241;28;46790;-76
2023/06/16 03:36:01;;;;;;;;;16.33;12.67;;;;;20.60;100.00;101433.94;5073297;28;45202;-77
2023/06/16 03:38:26;;;;;;;;;14.67;12.67;;;;;20.56;99.96;101429.59;5070094;28;45234;-75
2023/06/16 03:40:52;;;;;;;;;12.67;12.00;;;;;20.54;100.00;101430.53;5078840;28;45446;-75
2023/06/16 03:43:17;;;;;;;;;17.00;15.67;;;;;20.52;100.00;101433.25;5073739;28;46407;-76
2023/06/16 03:45:42;;;;;;;;;14.33;14.33;;;;;20.50;100.00;101431.50;5077875;28;68271;-75
2023/06/16 03:48:08;;;;;;;;;14.67;12.33;;;;;20.48;100.00;101430.66;5078087;28;60654;-75
2023/06/16 03:50:33;;;;;;;;;25.67;17.67;;;;;20.46;100.00;101432.47;5076108;28;59893;-75
2023/06/16 03:52:59;;;;;;;;;19.00;16.00;;;;;20.46;100.00;101424.41;5071439;28;45643;-75
2023/06/16 03:55:24;;;;;;;;;17.33;15.67;;;;;20.42;100.00;101429.81;5073856;28;45406;-75
2023/06/16 03:57:50;;;;;;;;;17.33;14.33;;;;;20.40;100.00;101425.41;5076501;28;54339;-75
2023/06/16 04:00:15;;;;;;;;;20.00;18.75;;;;;20.37;100.00;101430.84;5077705;28;45445;-75
2023/06/16 04:02:41;;;;;;;;;17.33;17.33;;;;;20.33;100.00;101424.63;5074257;28;46711;-76
2023/06/16 04:05:08;;;;;;;;;18.67;18.67;;;;;20.32;100.00;101422.88;5052258;28;45477;-76
2023/06/16 04:07:34;;;;;;;;;20.33;16.67;;;;;20.31;100.00;101428.28;5078294;28;45357;-76
2023/06/16 04:09:59;;;;;;;;;19.67;17.00;;;;;20.32;100.00;101433.59;5078065;28;45430;-76
2023/06/16 04:12:25;;;;;;;;;16.00;14.67;;;;;20.32;100.00;101430.91;5077759;28;62597;-76
2023/06/16 04:14:50;;;;;;;;;16.33;14.33;;;;;20.33;100.00;101435.38;5058039;28;45537;-75
2023/06/16 04:17:16;;;;;;;;;16.00;15.00;;;;;20.32;100.00;101430.91;5078222;28;45153;-76
2023/06/16 04:19:41;;;;;;;;;15.33;15.33;;;;;20.33;100.00;101435.38;5077561;28;58683;-76
2023/06/16 04:22:06;;;;;;;;;16.00;14.33;;;;;20.33;100.00;101432.69;5078143;28;46283;-76
2023/06/16 04:24:32;;;;;;;;;15.00;15.00;;;;;20.35;100.00;101443.41;5076667;28;68917;-76
2023/06/16 04:26:58;;;;;;;;;18.33;16.33;;;;;20.35;100.00;101438.03;5077975;28;45360;-75
2023/06/16 04:29:25;;;;;;;;;13.33;13.33;;;;;20.36;100.00;101442.47;5078293;28;45374;-75
2023/06/16 04:31:51;;;;;;;;;15.00;14.00;;;;;20.38;100.00;101443.31;5076883;28;46878;-76
2023/06/16 04:34:17;;;;;;;;;18.33;15.33;;;;;20.40;100.00;101441.50;5053955;28;45434;-75
2023/06/16 04:36:44;;;;;;;;;15.00;14.33;;;;;20.38;100.00;101449.56;5077901;28;45294;-76
2023/06/16 04:39:13;;;;;;;;;18.33;15.33;;;;;20.37;100.00;101445.13;5075257;28;45410;-75
2023/06/16 04:41:39;;;;;;;;;16.00;13.67;;;;;20.37;100.00;101441.56;5077216;28;46821;-75
2023/06/16 04:44:04;;;;;;;;;15.67;13.00;;;;;20.37;100.00;101447.81;5075775;28;45737;-75
2023/06/16 04:46:30;;;;;;;;;13.00;12.33;;;;;20.35;100.00;101449.66;5077295;28;46967;-76
2023/06/16 04:48:56;;;;;;;;;17.33;15.67;;;;;20.35;100.00;101455.00;5076771;28;45521;-76
2023/06/16 04:51:21;;;;;;;;;14.67;13.33;;;;;20.35;100.00;101448.78;5076516;28;45782;-77
2023/06/16 04:53:48;;;;;;;;;16.00;16.00;;;;;20.36;100.00;101443.38;5074119;28;45359;-76
2023/06/16 04:56:13;;;;;;;;;17.33;15.33;;;;;20.37;100.00;101449.59;5076935;28;45493;-75
2023/06/16 04:58:39;;;;;;;;;17.00;15.67;;;;;20.37;100.00;101450.50;5077404;28;45515;-76
2023/06/16 05:01:04;;;;;;;;;17.33;15.00;;;;;20.40;100.00;101439.72;5076801;28;45692;-75
2023/06/16 05:03:30;;;;;;;;;15.00;14.00;;;;;20.42;100.00;101443.25;5075629;28;64104;-76
2023/06/16 05:05:55;;;;;;;;;20.00;18.67;;;;;20.45;100.00;101442.28;5076831;28;45398;-76
2023/06/16 05:08:21;;;;;;;;;15.00;15.00;;;;;20.47;100.00;101437.81;5076488;28;61225;-76
2023/06/16 05:10:46;;;;;;;;;18.00;15.33;;;;;20.49;100.00;101435.09;5058683;28;47497;-75
2023/06/16 05:13:11;;;;;;;;;15.33;14.67;;;;;20.52;100.00;101432.38;5076501;28;45439;-76
2023/06/16 05:15:37;;;;;;;;;18.33;16.00;;;;;20.52;100.00;101437.72;5076114;28;62360;-76
2023/06/16 05:18:02;;;;;;;;;15.33;14.67;;;;;20.53;100.00;101429.63;5076167;28;61408;-75
2023/06/16 05:20:30;;;;;;;;;17.00;16.00;;;;;20.57;100.00;101436.72;5075934;28;46900;-75
2023/06/16 05:22:55;;;;;;;;;16.67;16.00;;;;;20.58;100.00;101432.22;5076652;28;45404;-75
2023/06/16 05:25:21;;;;;;;;;17.00;17.00;;;;;20.62;100.00;101437.50;5076855;28;45742;-76
2023/06/16 05:27:46;;;;;;;;;19.67;16.67;;;;;20.66;100.00;101432.94;5075937;28;60137;-76
2023/06/16 05:30:12;;;;;;;;;18.00;15.33;;;;;20.68;100.00;101431.13;5076372;28;45548;-76
2023/06/16 05:32:37;;;;;;;;;24.67;17.00;;;;;20.72;100.00;101430.16;5076403;28;45576;-76
2023/06/16 05:35:03;;;;;;;;;19.67;16.67;;;;;20.76;100.00;101436.31;5075888;28;63972;-75
2023/06/16 05:37:29;;;;;;;;;18.00;17.00;;;;;20.79;100.00;101433.56;5077100;28;45415;-76
2023/06/16 05:39:54;;;;;;;;;17.33;17.33;;;;;20.83;100.00;101435.28;5074621;28;47014;-76
2023/06/16 05:42:19;;;;;;;;;18.00;18.00;;;;;20.86;100.00;101436.09;5075991;28;45513;-76
2023/06/16 05:44:45;;;;;;;;;16.33;15.67;;;;;20.93;100.00;101442.19;5076672;28;45446;-75
2023/06/16 05:47:11;;;;;;;;;18.33;14.67;;;;;21.01;100.00;101432.19;5076323;28;45284;-76
2023/06/16 05:49:36;;;;;;;;;19.33;15.33;;;;;21.06;100.00;101429.41;5074808;28;45446;-77
2023/06/16 05:52:04;;;;;;;;;16.67;15.33;;;;;21.11;100.00;101427.50;5067447;28;45350;-76
2023/06/16 05:54:29;;;;;;;;;19.00;16.00;;;;;21.18;100.00;101429.09;5076554;28;45263;-75
2023/06/16 05:56:56;;;;;;;;;16.33;16.33;;;;;21.24;100.00;101428.06;5055683;28;45323;-75
2023/06/16 05:59:21;;;;;;;;;17.67;17.67;;;;;21.30;100.00;101428.84;5072934;28;50292;-74
2023/06/16 06:01:47;;;;;;;;;17.00;16.33;;;;;21.33;100.00;101431.47;5072259;28;68949;-76
2023/06/16 06:04:12;;;;;;;;;20.33;17.33;;;;;21.39;100.00;101430.44;5074632;28;45498;-75
2023/06/16 06:06:38;;;;;;;;;17.67;15.00;;;;;21.45;100.00;101424.91;5069508;27;46585;-77
2023/06/16 06:09:04;;;;;;;;;18.00;18.00;;;;;21.50;100.00;101427.47;5071804;28;45652;-76
2023/06/16 06:11:30;;;;;;;;;15.67;15.67;;;;;21.54;100.00;101435.44;5072831;28;45512;-76
2023/06/16 06:13:55;;;;;;;;;19.00;15.67;;;;;21.57;100.00;101432.69;5072858;28;45396;-77
2023/06/16 06:16:21;;;;;;;;;20.00;18.33;;;;;21.60;100.00;101437.09;5072230;27;45463;-77
2023/06/16 06:18:48;;;;;;;;;16.33;14.33;;;;;21.64;100.00;101430.72;5163762;22;47291;-77
2023/06/16 06:21:13;;;;;;;;;18.00;15.00;;;;;21.71;100.00;101440.38;5054490;28;45431;-76
2023/06/16 06:23:38;;;;;;;;;16.00;14.33;;;;;21.75;100.00;101434.00;5071663;28;46472;-76
2023/06/16 06:26:04;;;;;;;;;16.67;15.33;;;;;21.79;100.00;101441.09;5067663;28;50182;-77
2023/06/16 06:28:30;;;;;;;;;15.00;15.00;;;;;21.83;100.00;101445.44;5074556;28;46383;-77
2023/06/16 06:30:55;;;;;;;;;16.67;16.33;;;;;21.90;100.00;101446.19;5075398;28;45585;-78
2023/06/16 06:33:20;;;;;;;;;21.00;16.67;;;;;21.94;100.00;101450.53;5073822;28;46555;-79
2023/06/16 06:35:46;;;;;;;;;21.67;20.00;;;;;22.03;100.00;101452.09;5073959;28;46799;-78
2023/06/16 06:38:11;;;;;;;;;18.67;16.67;;;;;22.10;100.00;101457.31;5070423;28;45728;-78
2023/06/16 06:40:36;;;;;;;;;19.00;16.33;;;;;22.21;100.00;101470.47;5070263;28;67528;-78
2023/06/16 06:43:02;;;;;;;;;21.67;18.67;;;;;22.30;100.00;101467.53;5070141;28;50462;-78
2023/06/16 06:45:27;;;;;;;;;18.67;18.67;;;;;22.39;100.00;101461.91;5073628;28;45445;-77
2023/06/16 06:47:53;;;;;;;;;20.67;19.00;;;;;22.49;99.76;101462.53;5074143;28;62617;-79
2023/06/16 06:50:18;;;;;;;;;21.00;18.33;;;;;22.55;98.63;101462.34;5073678;28;45419;-78
2023/06/16 06:52:43;;;;;;;;;16.67;15.00;;;;;22.61;97.88;101470.25;5073669;28;47069;-78
2023/06/16 06:55:09;;;;;;;;;13.67;13.67;;;;;22.70;97.04;101474.50;5063521;28;45411;-77
2023/06/16 06:57:34;;;;;;;;;12.33;11.67;;;;;22.79;98.19;101474.19;5071384;28;46396;-78
2023/06/16 07:00:00;;;;;;;;;14.67;13.33;;;;;22.86;97.48;101478.50;5072290;28;45555;-77
2023/06/16 07:02:25;;;;;;;;;13.67;13.67;;;;;22.90;97.22;101479.31;5062859;28;62605;-77
2023/06/16 07:04:50;;;;;;;;;15.00;13.00;;;;;22.92;96.01;101483.72;5061684;28;45315;-75
2023/06/16 07:07:16;;;;;;;;;13.67;13.67;;;;;22.95;94.11;101486.31;5064475;28;45682;-76
2023/06/16 07:09:41;;;;;;;;;12.33;12.33;;;;;22.98;93.30;101482.66;5065847;28;59023;-76
2023/06/16 07:12:08;;;;;;;;;15.67;13.00;;;;;23.02;93.76;101486.16;5043796;28;62770;-76
2023/06/16 07:14:33;;;;;;;;;16.33;14.00;;;;;23.04;93.20;101492.38;5065442;28;45501;-75
2023/06/16 07:17:01;;;;;;;;;14.67;14.67;;;;;23.07;92.64;101495.00;5069502;28;45529;-77
2023/06/16 07:19:26;;;;;;;;;18.33;16.33;;;;;23.10;92.73;101498.44;5065890;28;45484;-78
2023/06/16 07:21:56;;;;;;;;;14.33;14.33;;;;;23.15;92.44;101501.00;5077327;28;45386;-74
2023/06/16 07:24:22;;;;;;;;;15.00;12.33;;;;;23.18;93.04;101488.34;5074884;28;45419;-79
2023/06/16 07:26:47;;;;;;;;;17.33;14.00;;;;;23.24;92.36;101493.53;5056338;28;45639;-77
2023/06/16 07:29:12;;;;;;;;;12.00;12.00;;;;;23.30;91.51;101492.47;5078028;28;45504;-77
2023/06/16 07:31:38;;;;;;;;;15.00;14.00;;;;;23.37;91.83;101487.75;5072109;28;63138;-77
2023/06/16 07:34:03;;;;;;;;;13.33;11.33;;;;;23.41;91.57;101490.28;5072267;28;61017;-78
2023/06/16 07:36:30;;;;;;;;;15.33;15.33;;;;;23.46;88.96;101488.34;5067236;28;45753;-75
2023/06/16 07:38:56;;;;;;;;;14.00;14.00;;;;;23.55;88.53;101492.56;5073603;28;45675;-76
2023/06/16 07:41:21;;;;;;;;;20.67;14.33;;;;;23.62;90.04;101483.34;5075097;28;45451;-77
2023/06/16 07:43:48;;;;;;;;;13.00;13.00;;;;;23.72;90.61;101494.75;5077920;28;45448;-76
2023/06/16 07:46:14;;;;;;;;;16.00;13.00;;;;;23.81;90.91;101501.63;5077345;28;47452;-76
2023/06/16 07:48:39;;;;;;;;;13.00;12.33;;;;;23.85;90.94;101490.69;5075464;28;45660;-77
2023/06/16 07:51:05;;;;;;;;;17.33;14.00;;;;;23.91;90.66;101489.59;5073649;28;64622;-77
2023/06/16 07:53:31;;;;;;;;;13.00;13.00;;;;;23.96;88.37;101493.91;5068118;28;61597;-78
2023/06/16 07:55:56;;;;;;;;;14.33;13.33;;;;;24.04;88.60;101496.34;5068810;28;46400;-77
2023/06/16 07:58:22;;;;;;;;;13.00;13.00;;;;;24.09;87.44;101493.50;5075461;28;45453;-76
2023/06/16 08:00:51;;;;;;;;;15.00;15.00;;;;;24.15;86.80;101494.16;5071202;28;45520;-77
2023/06/16 08:03:17;;;;;;;;;13.00;13.00;;;;;24.23;88.17;101492.06;5071105;28;45314;-76
2023/06/16 08:05:42;;;;;;;;;17.33;15.00;;;;;24.33;89.35;101500.72;5071535;28;47286;-76
2023/06/16 08:08:07;;;;;;;;;15.67;14.67;;;;;24.41;88.44;101489.69;5077024;28;63851;-76
2023/06/16 08:10:33;;;;;;;;;14.00;13.00;;;;;24.48;88.02;101483.13;5078016;28;54332;-77
2023/06/16 08:12:58;;;;;;;;;14.00;12.67;;;;;24.56;89.37;101489.13;5078208;28;45421;-76
2023/06/16 08:15:23;;;;;;;;;17.00;14.33;;;;;24.65;88.31;101480.69;5074120;28;50317;-76
2023/06/16 08:17:49;;;;;;;;;17.67;13.00;;;;;24.73;87.44;101489.38;5077817;28;57922;-78
2023/06/16 08:20:14;;;;;;;;;14.00;12.00;;;;;24.81;87.25;101489.09;5076447;28;45319;-77
2023/06/16 08:22:40;;;;;;;;;15.67;13.33;;;;;24.88;86.61;101485.22;5077311;28;45256;-77
2023/06/16 08:25:06;;;;;;;;;11.67;10.33;;;;;24.95;87.01;101477.78;5077299;28;47501;-76
2023/06/16 08:27:31;;;;;;;;;13.00;13.00;;;;;25.01;85.74;101474.81;5077678;28;45339;-77
2023/06/16 08:29:57;;;;;;;;;15.00;13.00;;;;;25.06;85.09;101475.56;5077252;28;64255;-76
2023/06/16 08:32:22;;;;;;;;;13.00;13.00;;;;;25.12;84.94;101479.84;5073024;28;60856;-76
2023/06/16 08:34:48;;;;;;;;;12.00;12.00;;;;;25.19;84.59;101470.53;5077267;28;46697;-77
2023/06/16 08:37:13;;;;;;;;;15.67;15.33;;;;;25.23;82.36;101472.19;5077603;28;45498;-78
2023/06/16 08:39:42;;;;;;;;;13.00;11.33;;;;;25.28;80.64;101468.34;5077966;28;45516;-77
2023/06/16 08:42:07;;;;;;;;;15.67;13.67;;;;;25.35;80.41;101471.69;5078070;28;45341;-77
2023/06/16 08:44:33;;;;;;;;;15.33;15.33;;;;;25.40;79.32;101466.97;5077682;28;46341;-77
2023/06/16 08:46:58;;;;;;;;;16.33;16.33;;;;;25.46;78.08;101464.06;5072165;28;51672;-78
2023/06/16 08:49:24;;;;;;;;;13.33;13.00;;;;;25.51;80.53;101462.00;5077917;28;45416;-77
2023/06/16 08:51:51;;;;;;;;;15.33;13.33;;;;;25.58;80.70;101459.94;5077463;28;45438;-77
2023/06/16 08:54:18;;;;;;;;;15.67;13.67;;;;;25.66;80.11;101456.91;5077217;28;46660;-77
2023/06/16 08:56:46;;;;;;;;;18.33;13.67;;;;;25.72;78.96;101452.13;5077363;28;45486;-77
2023/06/16 08:59:12;;;;;;;;;12.00;12.00;;;;;25.78;79.14;101453.72;5058895;28;45438;-77
2023/06/16 09:01:40;;;;;;;;;12.00;12.00;;;;;25.83;76.99;101460.72;5077164;28;45530;-77
2023/06/16 09:04:09;;;;;;;;;13.33;11.33;;;;;25.90;75.36;101460.47;5072823;28;46480;-76
2023/06/16 09:06:35;;;;;;;;;13.00;11.67;;;;;25.97;75.55;101461.94;5077027;28;45455;-76
2023/06/16 09:09:01;;;;;;;;;11.67;10.67;;;;;26.03;73.65;101462.56;5077542;28;45283;-77
2023/06/16 09:11:28;;;;;;;;;11.67;9.00;;;;;26.07;72.75;101458.78;5076471;28;45291;-78
2023/06/16 09:13:54;;;;;;;;;10.00;10.00;;;;;26.13;75.49;101463.91;5076196;28;46470;-75
2023/06/16 09:16:23;;;;;;;;;12.33;11.33;;;;;26.19;74.74;101456.47;5076835;28;45374;-76
2023/06/16 09:18:49;;;;;;;;;11.67;11.67;;;;;26.24;74.14;101459.84;5077332;28;45502;-77
2023/06/16 09:21:22;;;;;;;;;12.67;11.33;;;;;26.30;73.75;101456.88;5074430;28;45556;-78
2023/06/16 09:23:56;;;;;;;;;10.33;10.33;;;;;26.38;72.67;101454.72;5076764;28;46593;-77
2023/06/16 09:26:21;;;;;;;;;13.00;10.33;;;;;26.45;69.68;101455.34;5076650;28;45418;-77
2023/06/16 09:28:47;;;;;;;;;8.00;8.00;;;;;26.52;70.86;101459.53;5074917;28;47728;-76
2023/06/16 09:31:13;;;;;;;;;10.67;10.67;;;;;26.58;69.71;101445.69;5073101;28;45379;-77
2023/06/16 09:33:40;;;;;;;;;11.00;10.33;;;;;26.65;67.41;101452.59;5076652;28;46521;-76
2023/06/16 09:36:05;;;;;;;;;8.00;8.00;;;;;26.71;67.05;101449.59;5069727;28;45446;-77
2023/06/16 09:38:37;;;;;;;;;9.33;9.33;;;;;26.79;65.09;101447.44;5068803;28;55264;-77
2023/06/16 09:41:15;;;;;;;;;11.33;11.00;;;;;26.89;60.46;101440.59;5077156;28;45549;-77
2023/06/16 09:43:41;;;;;;;;;11.33;10.33;;;;;26.99;64.53;101445.59;5076803;28;47775;-76
2023/06/16 09:46:09;;;;;;;;;9.00;8.00;;;;;27.03;63.63;101450.81;5076643;28;45319;-77
2023/06/16 09:48:34;;;;;;;;;10.00;10.00;;;;;27.09;63.39;101439.69;5075672;28;45482;-78
2023/06/16 09:51:00;;;;;;;;;8.00;8.00;;;;;27.14;63.52;101442.19;5076335;28;45402;-78
2023/06/16 09:53:26;;;;;;;;;9.00;9.00;;;;;27.22;60.05;101439.09;5076866;28;46665;-77
2023/06/16 09:55:53;;;;;;;;;12.00;9.67;;;;;27.28;63.77;101439.69;5076543;28;45314;-76
2023/06/16 09:58:19;;;;;;;;;10.67;9.00;;;;;27.34;60.91;101433.97;5072297;28;56031;-77
2023/06/16 10:00:44;;;;;;;;;8.00;8.00;;;;;27.41;61.90;101442.66;5058196;28;45579;-76
2023/06/16 10:03:10;;;;;;;;;9.67;9.00;;;;;27.45;61.31;101444.28;5076646;28;45671;-77
2023/06/16 10:05:37;;;;;;;;;9.33;8.00;;;;;27.52;60.52;101443.00;5076456;28;45625;-76
2023/06/16 10:08:06;;;;;;;;;10.67;9.00;;;;;27.59;58.90;101439.03;5075718;28;45515;-76
2023/06/16 10:10:33;;;;;;;;;11.33;8.67;;;;;27.67;58.90;101436.81;5071485;28;45552;-77
2023/06/16 10:13:03;;;;;;;;;8.67;8.67;;;;;27.73;56.06;101432.06;5075718;28;47440;-77
2023/06/16 10:15:31;;;;;;;;;10.67;9.33;;;;;27.80;59.46;101434.38;5075445;28;45616;-77
2023/06/16 10:18:05;;;;;;;;;8.67;8.67;;;;;27.87;57.30;101427.69;5070671;28;45487;-77
2023/06/16 10:20:34;;;;;;;;;11.00;9.33;;;;;27.96;60.23;101434.44;5076841;28;45215;-77
2023/06/16 10:23:00;;;;;;;;;12.00;10.33;;;;;28.01;60.99;101435.09;5076370;28;47081;-76
2023/06/16 10:25:25;;;;;;;;;9.00;9.00;;;;;28.05;60.54;101424.97;5074949;28;45460;-77
2023/06/16 10:27:52;;;;;;;;;11.00;8.00;;;;;28.11;61.38;101430.06;5071224;28;45252;-77
2023/06/16 10:30:19;;;;;;;;;9.67;9.67;;;;;28.13;60.52;101428.16;5056781;28;64312;-77
2023/06/16 10:32:48;;;;;;;;;8.33;8.33;;;;;28.18;59.27;101418.81;5075939;28;46762;-76
2023/06/16 10:35:14;;;;;;;;;11.67;9.67;;;;;28.23;58.91;101425.81;5072399;28;45358;-77
2023/06/16 10:37:40;;;;;;;;;8.67;8.67;;;;;28.31;55.42;101431.72;5075690;28;45418;-76
2023/06/16 10:40:08;;;;;;;;;10.33;9.00;;;;;28.39;58.88;101429.50;5073128;27;45675;-77
2023/06/16 10:42:34;;;;;;;;;13.00;11.00;;;;;28.41;57.44;101424.88;5072221;28;46666;-76
2023/06/16 10:45:25;;;;;;;;;10.00;10.00;;;;;28.47;56.05;101431.81;5079515;28;45382;-77
2023/06/16 10:48:01;;;;;;;;;10.33;10.00;;;;;28.48;58.43;101429.00;5079484;28;45339;-76
2023/06/16 10:50:39;;;;;;;;;10.00;10.00;;;;;28.51;55.92;101427.97;5079599;28;45445;-76
2023/06/16 10:53:16;;;;;;;;;11.00;11.00;;;;;28.57;53.77;101428.50;5072297;28;47381;-76
2023/06/16 10:55:44;;;;;;;;;11.00;11.00;;;;;28.66;55.15;101422.56;5074144;28;45142;-77
2023/06/16 10:58:16;;;;;;;;;10.00;10.00;;;;;28.76;55.11;101422.03;5079617;28;45417;-77
2023/06/16 11:00:55;;;;;;;;;11.00;11.00;;;;;28.81;55.85;101420.81;5079325;28;45763;-77
2023/06/16 11:03:20;;;;;;;;;14.33;12.33;;;;;28.82;53.40;101414.44;5079322;28;46637;-77
2023/06/16 11:05:48;;;;;;;;;12.00;10.00;;;;;28.86;53.34;101412.41;5078560;28;59437;-76